Columbus, Ohio
Traffic Map
Current Weather Conditions
Columbus, Ohio
Scattered Clouds
Scattered Clouds
14°
Feels Like: 14°
Wind Chill: 14° Ceiling: Unl
Heat Index: 14° Visibility: 10mi
Dew Point: Wind: 8mph
Humidity: 55% Direction: 330° (NNW)
Pressure: 30.12in Gusts: 0mph
Raw Report DataKCMH 232151Z 33007KT 10SM SCT250 14/05 A3012 RMK AO2 SLP202 T01390050
Traffic Incident Summary
Active as of:
Severity:
Category:
InformationThere was an issue retrieving the traffic information for this location. Please try a different location or try again shortly.
Advertisements
Track Severe Weather on mobile